Time;durP1;ratioP1;P1;durP2;ratioP2;P2;SDS_P1;SDS_P2;PMS_P1;PMS_P2;Temp;Humidity;BMP_temperature;BMP_pressure;BME280_temperature;BME280_humidity;BME280_pressure;Samples;Min_cycle;Max_cycle;Signal;HPM_P1;HPM_P2
2022/12/02 00:02:28;;;;;;;24.03;14.30;;;3.30;99.90;;;;;;5091665;28;20552;-47
2022/12/02 00:04:57;;;;;;;23.90;14.37;;;3.20;99.90;;;;;;5091200;28;20563;-48
2022/12/02 00:07:24;;;;;;;26.67;13.87;;;3.00;99.90;;;;;;5091928;28;20552;-47
2022/12/02 00:09:51;;;;;;;21.17;14.80;;;3.00;99.90;;;;;;5091522;28;20535;-50
2022/12/02 00:12:22;;;;;;;25.17;15.00;;;3.00;99.90;;;;;;5091098;28;20462;-47
2022/12/02 00:14:55;;;;;;;25.33;14.87;;;2.90;99.90;;;;;;5090935;28;20440;-48
2022/12/02 00:17:22;;;;;;;22.67;14.80;;;2.70;99.90;;;;;;5091675;28;20443;-48
2022/12/02 00:19:49;;;;;;;22.10;15.60;;;2.80;99.90;;;;;;5091285;28;20530;-47
2022/12/02 00:22:16;;;;;;;25.03;14.77;;;3.00;99.90;;;;;;5091270;28;20463;-49
2022/12/02 00:24:43;;;;;;;23.93;14.53;;;2.90;99.90;;;;;;5090693;28;20559;-47
2022/12/02 00:27:10;;;;;;;18.97;13.67;;;2.90;99.90;;;;;;5090979;28;20590;-47
2022/12/02 00:29:37;;;;;;;19.13;13.00;;;3.00;99.90;;;;;;5091515;28;20440;-48
2022/12/02 00:32:06;;;;;;;18.47;12.40;;;3.00;99.90;;;;;;5091117;28;20478;-47
2022/12/02 00:34:33;;;;;;;19.30;12.13;;;3.00;99.90;;;;;;5090406;28;20531;-49
2022/12/02 00:37:00;;;;;;;20.70;13.20;;;3.10;99.90;;;;;;5091091;28;20446;-47
2022/12/02 00:39:26;;;;;;;21.90;13.67;;;3.00;99.90;;;;;;5091421;28;20527;-47
2022/12/02 00:41:53;;;;;;;21.40;13.67;;;3.10;99.90;;;;;;5091060;28;20460;-48
2022/12/02 00:47:05;;;;;;;20.90;13.80;;;3.10;99.90;;;;;;5090894;28;20496;-47
2022/12/02 00:49:32;;;;;;;21.87;12.40;;;3.00;99.90;;;;;;5090749;28;20440;-48
2022/12/02 00:51:59;;;;;;;22.63;13.30;;;3.10;99.90;;;;;;5091036;28;20579;-47
2022/12/02 00:54:26;;;;;;;26.93;14.40;;;3.10;99.90;;;;;;5090432;28;20431;-50
2022/12/02 00:56:53;;;;;;;24.43;14.10;;;2.70;99.90;;;;;;5090813;28;20465;-47
2022/12/02 00:59:20;;;;;;;20.60;13.00;;;2.50;99.90;;;;;;5090564;28;20444;-47
2022/12/02 01:01:47;;;;;;;20.10;12.77;;;2.50;99.90;;;;;;5090355;28;20464;-47
2022/12/02 01:04:15;;;;;;;19.47;12.73;;;2.50;99.90;;;;;;5090816;28;20480;-47
2022/12/02 01:06:42;;;;;;;20.53;13.70;;;2.50;99.90;;;;;;5091097;28;20440;-47
2022/12/02 01:09:10;;;;;;;21.13;14.47;;;2.60;99.90;;;;;;5091096;28;20444;-51
2022/12/02 01:11:37;;;;;;;22.03;15.20;;;2.60;99.90;;;;;;5090150;28;20784;-47
2022/12/02 01:14:04;;;;;;;21.93;13.77;;;2.70;99.90;;;;;;5090423;28;20444;-47
2022/12/02 01:16:30;;;;;;;26.97;15.23;;;2.80;99.90;;;;;;5090518;28;20436;-47
2022/12/02 01:18:57;;;;;;;19.43;12.67;;;2.90;99.90;;;;;;5090969;28;20528;-50
2022/12/02 01:21:25;;;;;;;21.67;12.80;;;3.10;99.90;;;;;;5090584;28;20478;-48
2022/12/02 01:23:52;;;;;;;18.63;11.87;;;3.10;99.90;;;;;;5090135;28;21000;-48
2022/12/02 01:26:19;;;;;;;19.10;11.67;;;3.10;99.90;;;;;;5090760;28;20446;-47
2022/12/02 01:28:46;;;;;;;19.60;11.17;;;3.00;99.90;;;;;;5090696;28;20446;-49
2022/12/02 01:31:14;;;;;;;17.07;10.40;;;3.10;99.90;;;;;;5091910;28;20471;-47
2022/12/02 01:33:41;;;;;;;19.03;12.00;;;3.10;99.90;;;;;;5094192;28;20444;-48
2022/12/02 01:36:09;;;;;;;18.07;11.73;;;3.00;99.90;;;;;;5094326;28;20526;-47
2022/12/02 01:38:37;;;;;;;18.90;11.63;;;3.00;99.90;;;;;;5094346;28;20885;-47
2022/12/02 01:41:05;;;;;;;22.67;12.47;;;3.00;99.90;;;;;;5093937;28;20838;-47
2022/12/02 01:43:32;;;;;;;19.50;12.00;;;3.10;99.90;;;;;;5094027;28;20609;-49
2022/12/02 01:45:59;;;;;;;13.60;10.77;;;3.10;99.90;;;;;;5094253;28;20435;-50
2022/12/02 01:48:26;;;;;;;23.30;13.50;;;3.10;99.90;;;;;;5093808;28;20440;-47
2022/12/02 01:50:53;;;;;;;18.17;12.53;;;3.00;99.90;;;;;;5094083;28;20582;-47
2022/12/02 01:53:20;;;;;;;22.30;11.57;;;2.80;99.90;;;;;;5092894;28;21027;-48
2022/12/02 01:55:48;;;;;;;17.30;11.23;;;2.90;99.90;;;;;;5094309;28;20440;-47
2022/12/02 01:58:18;;;;;;;17.90;11.80;;;3.00;99.90;;;;;;5094131;28;20536;-47
2022/12/02 02:00:45;;;;;;;17.50;13.27;;;3.10;99.90;;;;;;5093599;28;20542;-47
2022/12/02 02:03:12;;;;;;;22.90;13.00;;;3.20;99.90;;;;;;5093355;28;20531;-48
2022/12/02 02:05:39;;;;;;;19.57;12.20;;;3.20;99.90;;;;;;5093677;28;20796;-49
2022/12/02 02:08:08;;;;;;;17.43;12.30;;;3.20;99.90;;;;;;5093908;28;20547;-47
2022/12/02 02:10:37;;;;;;;24.97;13.07;;;3.20;99.90;;;;;;5093622;28;20444;-51
2022/12/02 02:13:07;;;;;;;20.27;12.90;;;3.20;99.90;;;;;;5093545;28;20444;-47
2022/12/02 02:15:34;;;;;;;24.43;13.10;;;3.20;99.90;;;;;;5093507;28;21024;-49
2022/12/02 02:18:01;;;;;;;18.73;12.60;;;3.30;99.90;;;;;;5093492;28;20532;-47
2022/12/02 02:20:28;;;;;;;21.00;12.93;;;3.30;99.90;;;;;;5092261;28;20448;-47
2022/12/02 02:23:04;;;;;;;21.13;13.47;;;3.30;99.90;;;;;;5093039;28;20552;-50
2022/12/02 02:25:33;;;;;;;21.33;11.70;;;3.40;99.90;;;;;;5093254;28;20514;-48
2022/12/02 02:28:01;;;;;;;18.10;11.40;;;3.40;99.90;;;;;;5093409;28;20527;-48
2022/12/02 02:30:29;;;;;;;25.00;12.00;;;3.40;99.90;;;;;;5092831;28;21017;-47
2022/12/02 02:32:57;;;;;;;14.60;10.40;;;3.40;99.90;;;;;;5093417;28;20545;-49
2022/12/02 02:35:24;;;;;;;20.07;11.10;;;3.50;99.90;;;;;;5093464;28;20445;-47
2022/12/02 02:37:52;;;;;;;19.53;13.83;;;3.50;99.90;;;;;;5093113;28;20436;-49
2022/12/02 02:40:20;;;;;;;20.57;10.93;;;3.50;99.90;;;;;;5093027;28;20436;-48
2022/12/02 02:42:51;;;;;;;25.37;13.60;;;3.30;99.90;;;;;;5092837;28;20869;-48
2022/12/02 02:45:20;;;;;;;21.17;13.90;;;3.00;99.90;;;;;;5092400;28;20580;-49
2022/12/02 02:47:47;;;;;;;19.20;12.30;;;2.80;99.90;;;;;;5093222;28;20444;-48
2022/12/02 02:50:15;;;;;;;24.70;14.90;;;2.70;99.90;;;;;;5092417;28;20948;-47
2022/12/02 02:52:42;;;;;;;26.10;14.70;;;2.70;99.90;;;;;;5092731;28;20547;-47
2022/12/02 02:55:14;;;;;;;28.70;15.60;;;2.80;99.90;;;;;;5091939;28;20436;-47
2022/12/02 02:57:41;;;;;;;23.87;15.10;;;2.80;99.90;;;;;;5092589;28;20455;-48
2022/12/02 03:00:11;;;;;;;24.50;13.00;;;2.90;99.90;;;;;;5092629;28;20539;-49
2022/12/02 03:02:38;;;;;;;19.97;14.20;;;2.80;99.90;;;;;;5092437;28;20468;-49
2022/12/02 03:05:07;;;;;;;26.07;14.27;;;2.80;99.90;;;;;;5092304;28;21107;-45
2022/12/02 03:07:35;;;;;;;22.43;14.70;;;3.00;99.90;;;;;;5092812;28;20870;-47
2022/12/02 03:10:02;;;;;;;23.63;15.00;;;3.00;99.90;;;;;;5092429;28;20436;-47
2022/12/02 03:12:29;;;;;;;28.33;15.27;;;3.20;99.90;;;;;;5092166;28;20470;-48
2022/12/02 03:14:56;;;;;;;22.43;14.43;;;3.20;99.90;;;;;;5091484;28;21036;-47
2022/12/02 03:17:24;;;;;;;15.90;10.97;;;3.20;99.90;;;;;;5092428;28;20470;-48
2022/12/02 03:19:51;;;;;;;14.80;9.73;;;3.20;99.90;;;;;;5092617;28;20460;-50
2022/12/02 03:22:18;;;;;;;16.37;11.10;;;3.10;99.90;;;;;;5092339;28;20543;-47
2022/12/02 03:24:45;;;;;;;14.80;10.53;;;3.10;99.90;;;;;;5091357;28;20566;-48
2022/12/02 03:27:12;;;;;;;20.83;11.30;;;3.10;99.90;;;;;;5091842;28;20447;-48
2022/12/02 03:29:40;;;;;;;16.47;10.00;;;3.10;99.90;;;;;;5092554;28;20645;-47
2022/12/02 03:32:09;;;;;;;18.77;11.07;;;3.10;99.90;;;;;;5092078;28;20571;-47
2022/12/02 03:34:39;;;;;;;14.23;10.47;;;3.10;99.90;;;;;;5091660;28;20446;-49
2022/12/02 03:37:06;;;;;;;19.00;14.00;;;3.20;99.90;;;;;;5091821;28;20450;-47
2022/12/02 03:39:33;;;;;;;26.00;13.30;;;3.10;99.90;;;;;;5091586;28;20540;-49
2022/12/02 03:42:00;;;;;;;18.50;10.73;;;3.00;99.90;;;;;;5091933;28;20461;-47
2022/12/02 03:44:26;;;;;;;20.67;13.33;;;3.10;99.90;;;;;;5091449;28;20478;-50
2022/12/02 03:46:53;;;;;;;20.90;14.27;;;3.00;99.90;;;;;;5091844;28;20959;-47
2022/12/02 03:49:20;;;;;;;22.63;14.33;;;2.90;99.90;;;;;;5092011;28;20975;-48
2022/12/02 03:51:49;;;;;;;21.00;12.47;;;2.90;99.90;;;;;;5091107;28;20552;-49
2022/12/02 03:54:16;;;;;;;18.90;11.80;;;3.00;99.90;;;;;;5090301;28;20528;-47
2022/12/02 03:56:43;;;;;;;23.03;12.73;;;3.00;99.90;;;;;;5091863;28;20439;-47
2022/12/02 03:59:17;;;;;;;20.03;12.07;;;3.10;99.90;;;;;;5091396;28;20566;-48
2022/12/02 04:01:44;;;;;;;17.60;11.53;;;3.00;99.90;;;;;;5090630;28;20459;-47
2022/12/02 04:04:11;;;;;;;16.70;11.60;;;3.10;99.90;;;;;;5089334;28;21004;-47
2022/12/02 04:06:38;;;;;;;18.47;10.87;;;3.20;99.90;;;;;;5089420;28;20538;-49
2022/12/02 04:09:06;;;;;;;20.73;13.37;;;3.20;99.90;;;;;;5090171;28;20438;-47
2022/12/02 04:11:33;;;;;;;17.13;11.17;;;3.20;99.90;;;;;;5089734;28;20464;-47
2022/12/02 04:14:00;;;;;;;21.30;12.07;;;3.20;99.90;;;;;;5089808;28;20450;-47
2022/12/02 04:16:27;;;;;;;21.60;12.10;;;3.20;99.90;;;;;;5090401;28;20448;-48
2022/12/02 04:18:53;;;;;;;21.30;12.30;;;3.20;99.90;;;;;;5089664;28;20436;-47
2022/12/02 04:21:23;;;;;;;20.03;12.10;;;3.20;99.90;;;;;;5088356;28;20855;-48
2022/12/02 04:23:51;;;;;;;17.50;11.70;;;3.10;99.90;;;;;;5090305;28;20940;-47
2022/12/02 04:26:19;;;;;;;19.70;13.13;;;3.00;99.90;;;;;;5073006;28;20450;-49
2022/12/02 04:28:46;;;;;;;19.00;11.77;;;3.00;99.90;;;;;;5090933;28;20437;-48
2022/12/02 04:31:13;;;;;;;17.60;11.57;;;3.00;99.90;;;;;;5091219;28;20480;-47
2022/12/02 04:33:40;;;;;;;19.90;12.77;;;3.00;99.90;;;;;;5091233;28;20811;-49
2022/12/02 04:36:07;;;;;;;18.43;12.03;;;3.00;99.90;;;;;;5091380;28;20442;-47
2022/12/02 04:38:34;;;;;;;16.53;10.93;;;3.00;99.90;;;;;;5088156;28;20532;-48
2022/12/02 04:41:00;;;;;;;17.63;12.10;;;3.00;99.90;;;;;;5087428;28;20459;-49
2022/12/02 04:43:28;;;;;;;17.23;12.67;;;3.00;99.90;;;;;;5089981;28;20437;-47
2022/12/02 04:45:55;;;;;;;19.47;11.87;;;3.00;99.90;;;;;;5076892;28;21051;-48
2022/12/02 04:48:22;;;;;;;24.77;12.20;;;3.00;99.90;;;;;;5090428;28;20450;-48
2022/12/02 04:50:49;;;;;;;23.07;13.60;;;3.00;99.90;;;;;;5090038;28;20450;-49
2022/12/02 04:53:16;;;;;;;20.00;12.07;;;3.10;99.90;;;;;;5088268;28;20819;-51
2022/12/02 04:55:45;;;;;;;20.30;10.80;;;3.00;99.90;;;;;;5089770;28;20446;-47
2022/12/02 04:58:12;;;;;;;17.20;12.70;;;3.00;99.90;;;;;;5085372;28;20934;-48
2022/12/02 05:00:40;;;;;;;22.20;11.17;;;3.00;99.90;;;;;;5089377;28;20444;-51
2022/12/02 05:03:07;;;;;;;19.30;12.53;;;3.00;99.90;;;;;;5089926;28;20437;-50
2022/12/02 05:05:34;;;;;;;20.53;13.67;;;3.00;99.90;;;;;;5090509;28;20559;-48
2022/12/02 05:08:01;;;;;;;23.27;13.03;;;2.90;99.90;;;;;;5093942;28;20832;-47
2022/12/02 05:10:28;;;;;;;16.20;11.40;;;2.80;99.90;;;;;;5093791;28;20535;-49
2022/12/02 05:12:55;;;;;;;18.77;11.47;;;2.80;99.90;;;;;;5093802;28;20538;-49
2022/12/02 05:15:22;;;;;;;17.63;11.03;;;2.80;99.90;;;;;;5093790;28;20459;-50
2022/12/02 05:17:50;;;;;;;17.90;12.60;;;2.70;99.90;;;;;;5093691;28;20443;-49
2022/12/02 05:20:17;;;;;;;24.77;12.27;;;2.60;99.90;;;;;;5093384;28;20832;-48
2022/12/02 05:22:44;;;;;;;28.37;13.77;;;2.60;99.90;;;;;;5093171;28;20481;-47
2022/12/02 05:25:11;;;;;;;25.10;12.57;;;2.70;99.90;;;;;;5092917;28;20467;-49
2022/12/02 05:27:38;;;;;;;18.63;12.30;;;2.70;99.90;;;;;;5093902;28;20527;-47
2022/12/02 05:30:06;;;;;;;25.53;13.60;;;2.60;99.90;;;;;;5092670;28;20447;-48
2022/12/02 05:32:33;;;;;;;26.87;12.67;;;2.70;99.90;;;;;;5087376;28;20478;-50
2022/12/02 05:35:01;;;;;;;22.43;12.70;;;2.80;99.90;;;;;;5092783;28;20858;-48
2022/12/02 05:37:28;;;;;;;22.10;13.03;;;2.90;99.90;;;;;;5077305;28;20532;-48
2022/12/02 05:39:55;;;;;;;22.47;13.30;;;3.00;99.90;;;;;;5073197;28;20967;-47
2022/12/02 05:42:22;;;;;;;23.47;13.00;;;3.00;99.90;;;;;;5084422;28;20467;-48
2022/12/02 05:44:49;;;;;;;23.07;14.53;;;3.00;99.90;;;;;;5092831;28;20475;-46
2022/12/02 05:47:17;;;;;;;22.27;14.70;;;3.00;99.90;;;;;;5093070;28;20444;-48
2022/12/02 05:49:46;;;;;;;24.20;14.13;;;3.00;99.90;;;;;;5091745;28;20963;-47
2022/12/02 05:52:23;;;;;;;27.70;17.13;;;2.90;99.90;;;;;;5093078;28;20547;-49
2022/12/02 05:54:52;;;;;;;20.10;14.20;;;2.80;99.90;;;;;;5092864;28;20518;-48
2022/12/02 05:57:22;;;;;;;23.20;14.00;;;2.70;99.90;;;;;;5093238;28;20797;-48
2022/12/02 05:59:50;;;;;;;25.13;15.17;;;2.70;99.90;;;;;;5092856;28;20444;-48
2022/12/02 06:02:24;;;;;;;25.30;15.17;;;2.80;99.90;;;;;;5090198;28;20555;-48
2022/12/02 06:04:51;;;;;;;21.43;14.63;;;2.60;99.90;;;;;;5092635;28;20467;-47
2022/12/02 06:07:19;;;;;;;24.07;14.70;;;2.60;99.90;;;;;;5092965;28;20618;-48
2022/12/02 06:09:46;;;;;;;23.93;14.77;;;2.70;99.90;;;;;;5092059;28;20448;-48
2022/12/02 06:12:16;;;;;;;24.30;13.17;;;2.80;99.90;;;;;;5092585;28;20460;-48
2022/12/02 06:14:47;;;;;;;25.63;14.23;;;2.90;99.90;;;;;;5087541;28;20532;-47
2022/12/02 06:17:16;;;;;;;22.13;12.83;;;3.00;99.90;;;;;;5092394;28;20538;-47
2022/12/02 06:19:45;;;;;;;34.13;15.60;;;3.00;99.90;;;;;;5092885;28;20535;-47
2022/12/02 06:22:18;;;;;;;17.90;12.80;;;3.00;99.90;;;;;;5089060;28;20466;-47
2022/12/02 06:24:46;;;;;;;21.47;13.30;;;3.00;99.90;;;;;;5092197;28;21036;-49
2022/12/02 06:27:15;;;;;;;20.57;13.80;;;3.10;99.90;;;;;;5093598;28;20444;-47
2022/12/02 06:29:46;;;;;;;23.77;15.77;;;3.10;99.90;;;;;;5087606;28;20673;-47
2022/12/02 06:32:18;;;;;;;21.93;14.50;;;3.10;99.90;;;;;;5091957;28;20559;-47
2022/12/02 06:34:45;;;;;;;20.83;13.10;;;3.00;99.90;;;;;;5091665;28;20439;-47
2022/12/02 06:37:16;;;;;;;19.90;13.43;;;3.00;99.90;;;;;;5080257;28;20531;-48
2022/12/02 06:39:45;;;;;;;26.73;13.87;;;3.10;99.90;;;;;;5092462;28;20444;-48
2022/12/02 06:42:20;;;;;;;17.77;12.27;;;3.10;99.90;;;;;;5091838;28;20546;-49
2022/12/02 06:45:05;;;;;;;23.23;13.20;;;3.10;99.90;;;;;;5091901;28;20530;-47
2022/12/02 06:47:58;;;;;;;16.93;11.87;;;3.10;99.90;;;;;;5090146;28;21000;-49
2022/12/02 06:50:29;;;;;;;19.77;13.00;;;3.10;99.90;;;;;;5068532;28;20513;-47
2022/12/02 06:53:12;;;;;;;25.93;13.67;;;3.10;99.90;;;;;;5090829;28;20460;-51
2022/12/02 06:55:39;;;;;;;20.50;12.80;;;3.10;99.90;;;;;;5090992;28;20527;-50
2022/12/02 06:58:22;;;;;;;21.90;12.63;;;3.10;99.90;;;;;;5092039;28;20451;-47
2022/12/02 07:00:49;;;;;;;22.87;14.20;;;3.10;99.90;;;;;;5075128;28;20527;-47
2022/12/02 07:03:29;;;;;;;20.23;12.50;;;2.90;99.90;;;;;;5087334;28;20523;-49
2022/12/02 07:05:58;;;;;;;24.43;14.43;;;2.80;99.90;;;;;;5087923;28;20464;-48
2022/12/02 07:08:26;;;;;;;21.70;14.33;;;2.70;99.90;;;;;;5091392;28;20523;-48
2022/12/02 07:10:53;;;;;;;24.33;15.20;;;2.60;99.90;;;;;;5090853;28;20463;-47
2022/12/02 07:13:22;;;;;;;19.00;14.53;;;2.60;99.90;;;;;;5091205;28;20548;-48
2022/12/02 07:15:49;;;;;;;22.27;15.17;;;2.60;99.90;;;;;;5090049;28;20523;-49
2022/12/02 07:18:21;;;;;;;23.23;16.77;;;2.70;99.90;;;;;;5090407;28;20447;-50
2022/12/02 07:20:49;;;;;;;23.37;14.93;;;2.70;99.90;;;;;;5091134;28;21174;-50
2022/12/02 07:23:19;;;;;;;27.97;15.20;;;2.90;99.90;;;;;;5090217;28;20929;-48
2022/12/02 07:25:49;;;;;;;20.60;14.40;;;2.90;99.90;;;;;;5090453;28;20479;-49
2022/12/02 07:28:25;;;;;;;23.03;15.80;;;3.00;99.90;;;;;;5090488;28;20513;-48
2022/12/02 07:30:57;;;;;;;23.07;14.97;;;3.10;99.90;;;;;;5089397;28;20499;-47
2022/12/02 07:33:24;;;;;;;25.07;14.67;;;3.10;99.90;;;;;;5090744;28;20448;-47
2022/12/02 07:35:51;;;;;;;22.40;14.40;;;3.20;99.90;;;;;;5091389;28;20880;-49
2022/12/02 07:38:18;;;;;;;19.63;13.67;;;3.20;99.90;;;;;;5090998;28;20992;-48
2022/12/02 07:40:44;;;;;;;30.57;14.33;;;3.20;99.90;;;;;;5090785;28;20444;-48
2022/12/02 07:43:11;;;;;;;22.20;14.23;;;3.20;99.90;;;;;;5090450;28;20648;-48
2022/12/02 07:45:39;;;;;;;20.27;13.53;;;3.20;99.90;;;;;;5090361;28;20550;-47
2022/12/02 07:48:06;;;;;;;22.10;12.67;;;3.30;99.90;;;;;;5090607;28;20437;-48
2022/12/02 07:50:33;;;;;;;24.27;14.67;;;3.30;99.90;;;;;;5090042;28;20993;-47
2022/12/02 07:53:00;;;;;;;23.40;13.80;;;3.30;99.90;;;;;;5090476;28;20532;-49
2022/12/02 07:55:27;;;;;;;28.13;15.53;;;3.30;99.90;;;;;;5090224;28;20440;-47
2022/12/02 07:57:54;;;;;;;22.93;14.97;;;3.30;99.90;;;;;;5090385;28;20528;-50
2022/12/02 08:00:22;;;;;;;23.93;14.90;;;3.30;99.90;;;;;;5090882;28;20944;-47
2022/12/02 08:02:50;;;;;;;20.77;13.70;;;3.30;99.90;;;;;;5090661;28;20470;-48
2022/12/02 08:05:17;;;;;;;20.70;12.90;;;3.40;99.90;;;;;;5089682;28;20556;-48
2022/12/02 08:07:44;;;;;;;19.30;13.80;;;3.40;99.90;;;;;;5090002;28;20528;-47
2022/12/02 08:10:11;;;;;;;21.50;14.50;;;3.30;99.90;;;;;;5090800;28;20545;-49
2022/12/02 08:12:38;;;;;;;25.00;14.97;;;3.30;99.90;;;;;;5090804;28;20463;-47
2022/12/02 08:15:07;;;;;;;20.13;14.13;;;3.30;99.90;;;;;;5090070;28;20437;-48
2022/12/02 08:17:34;;;;;;;24.13;14.77;;;3.40;99.90;;;;;;5089879;28;20568;-48
2022/12/02 08:20:03;;;;;;;19.53;13.17;;;3.40;99.90;;;;;;5090259;28;20471;-50
2022/12/02 08:22:30;;;;;;;24.13;14.90;;;3.40;99.90;;;;;;5087120;28;20460;-48
2022/12/02 08:24:57;;;;;;;24.03;15.93;;;3.40;99.90;;;;;;5089828;28;20440;-47
2022/12/02 08:27:24;;;;;;;25.03;15.60;;;3.40;99.90;;;;;;5089964;28;20473;-47
2022/12/02 08:29:51;;;;;;;23.50;13.43;;;3.50;99.90;;;;;;5090359;28;20435;-48
2022/12/02 08:32:18;;;;;;;22.87;16.17;;;3.50;99.90;;;;;;5091408;28;20492;-47
2022/12/02 08:34:45;;;;;;;23.07;15.20;;;3.30;99.90;;;;;;5085748;28;20532;-47
2022/12/02 08:37:14;;;;;;;26.37;16.40;;;3.40;99.90;;;;;;5089864;28;20817;-47
2022/12/02 08:39:42;;;;;;;24.00;16.90;;;3.10;99.90;;;;;;5086162;28;20441;-48
2022/12/02 08:42:09;;;;;;;26.33;14.90;;;3.00;99.90;;;;;;5074223;28;20556;-47
2022/12/02 08:44:35;;;;;;;23.77;15.10;;;3.00;99.90;;;;;;5093554;28;20451;-47
2022/12/02 08:47:02;;;;;;;23.30;15.10;;;3.10;99.90;;;;;;5084420;28;20469;-47
2022/12/02 08:49:29;;;;;;;28.17;16.00;;;2.90;99.90;;;;;;5081909;28;20519;-49
2022/12/02 08:51:56;;;;;;;22.80;14.33;;;3.00;99.90;;;;;;5091891;28;20468;-47
2022/12/02 08:54:24;;;;;;;20.60;14.17;;;3.00;99.90;;;;;;5090713;28;20444;-47
2022/12/02 08:56:51;;;;;;;27.83;16.57;;;3.00;99.90;;;;;;5081912;28;20824;-48
2022/12/02 08:59:18;;;;;;;21.33;13.60;;;3.20;99.90;;;;;;5079297;28;20947;-50
2022/12/02 09:01:45;;;;;;;30.50;18.03;;;3.30;99.90;;;;;;5093068;28;20547;-48
2022/12/02 09:04:12;;;;;;;30.60;18.50;;;3.40;99.90;;;;;;5092293;28;20450;-47
2022/12/02 09:06:40;;;;;;;19.53;14.13;;;3.50;99.90;;;;;;5093046;28;21003;-47
2022/12/02 09:09:07;;;;;;;17.97;12.67;;;3.40;99.90;;;;;;5093290;28;20677;-47
2022/12/02 09:11:35;;;;;;;19.90;12.27;;;3.30;99.90;;;;;;5093414;28;21014;-47
2022/12/02 09:14:02;;;;;;;22.30;13.90;;;3.30;99.90;;;;;;5089749;28;20866;-47
2022/12/02 09:16:29;;;;;;;23.27;15.10;;;3.30;99.90;;;;;;5100958;28;20441;-47
2022/12/02 09:18:56;;;;;;;23.83;15.43;;;3.30;99.90;;;;;;5091585;28;20441;-47
2022/12/02 09:21:23;;;;;;;25.33;14.73;;;3.40;99.90;;;;;;5093009;28;21100;-48
2022/12/02 09:23:50;;;;;;;22.43;14.10;;;3.50;99.90;;;;;;5093002;28;20492;-47
2022/12/02 09:26:17;;;;;;;23.33;14.73;;;3.50;99.90;;;;;;5089002;28;20563;-47
2022/12/02 09:28:46;;;;;;;18.07;13.40;;;3.50;99.90;;;;;;5093032;28;20436;-47
2022/12/02 09:31:13;;;;;;;22.40;14.80;;;3.60;99.90;;;;;;5093586;28;20676;-48
2022/12/02 09:33:40;;;;;;;21.53;14.43;;;3.60;99.90;;;;;;5092310;28;20436;-48
2022/12/02 09:36:07;;;;;;;18.60;14.00;;;3.70;99.90;;;;;;5092949;28;20437;-47
2022/12/02 09:38:34;;;;;;;18.30;14.20;;;3.60;99.90;;;;;;5088186;28;21198;-47
2022/12/02 09:41:01;;;;;;;19.30;13.17;;;3.40;99.90;;;;;;5092349;28;21049;-48
2022/12/02 09:43:29;;;;;;;23.60;13.90;;;3.70;99.90;;;;;;5092328;28;20441;-47
2022/12/02 09:45:58;;;;;;;17.47;12.90;;;3.50;99.90;;;;;;5092571;28;20556;-47
2022/12/02 09:48:26;;;;;;;18.50;13.43;;;3.60;99.90;;;;;;5090549;28;20881;-48
2022/12/02 09:50:55;;;;;;;19.97;13.87;;;3.70;99.90;;;;;;5089785;28;20557;-49
2022/12/02 09:53:23;;;;;;;22.00;14.13;;;3.70;99.90;;;;;;5089543;28;20447;-48
2022/12/02 09:55:50;;;;;;;20.03;14.97;;;3.80;99.90;;;;;;5092454;28;20441;-48
2022/12/02 09:58:18;;;;;;;21.80;12.83;;;3.70;99.90;;;;;;5089061;28;20564;-47
2022/12/02 10:00:46;;;;;;;19.20;14.23;;;3.70;99.90;;;;;;5092389;28;20572;-48
2022/12/02 10:03:17;;;;;;;21.40;14.00;;;3.60;99.90;;;;;;5091059;28;20544;-49
2022/12/02 10:05:44;;;;;;;17.43;14.40;;;3.70;99.90;;;;;;5093890;28;20601;-48
2022/12/02 10:08:18;;;;;;;19.17;13.97;;;3.70;99.90;;;;;;5091791;28;20540;-47
2022/12/02 10:10:45;;;;;;;19.17;11.97;;;3.80;99.90;;;;;;5088114;28;20476;-47
2022/12/02 10:13:14;;;;;;;19.07;12.53;;;3.90;99.90;;;;;;5092854;28;20442;-47
2022/12/02 10:15:41;;;;;;;20.17;13.40;;;3.90;99.90;;;;;;5096708;28;21061;-48
2022/12/02 10:18:14;;;;;;;16.80;11.37;;;3.80;99.90;;;;;;5093106;28;20539;-47
2022/12/02 10:20:42;;;;;;;15.17;10.23;;;3.80;99.90;;;;;;5092868;28;20523;-47
2022/12/02 10:23:13;;;;;;;14.47;10.97;;;3.60;99.90;;;;;;5092632;28;20445;-47
2022/12/02 10:25:42;;;;;;;19.53;11.10;;;3.70;99.90;;;;;;5093322;28;20552;-47
2022/12/02 10:28:24;;;;;;;17.47;12.67;;;3.70;99.90;;;;;;5093130;28;20445;-48
2022/12/02 10:30:53;;;;;;;17.20;11.30;;;3.80;99.90;;;;;;5092436;28;20453;-47
2022/12/02 10:33:24;;;;;;;17.40;11.60;;;4.00;99.90;;;;;;5092444;28;20441;-47
2022/12/02 10:35:53;;;;;;;14.17;11.63;;;4.00;99.90;;;;;;5092665;28;20540;-48
2022/12/02 10:38:38;;;;;;;16.63;12.10;;;3.80;99.90;;;;;;5093132;28;20452;-50
2022/12/02 10:41:15;;;;;;;15.17;11.43;;;3.70;99.90;;;;;;5092597;28;20977;-47
2022/12/02 10:43:44;;;;;;;18.70;12.53;;;4.20;99.90;;;;;;5092844;28;20522;-47
2022/12/02 10:46:14;;;;;;;18.70;12.23;;;5.90;99.90;;;;;;5092661;28;20559;-47
2022/12/02 10:48:40;;;;;;;18.37;10.50;;;6.50;99.90;;;;;;5093217;28;20443;-47
2022/12/02 10:51:14;;;;;;;14.60;11.20;;;5.10;99.90;;;;;;5091547;28;21039;-47
2022/12/02 10:53:43;;;;;;;19.80;11.97;;;4.60;99.90;;;;;;5092141;28;20449;-46
2022/12/02 10:56:17;;;;;;;16.07;11.07;;;4.30;99.90;;;;;;5093010;28;20851;-47
2022/12/02 10:58:44;;;;;;;20.30;12.27;;;4.40;99.90;;;;;;5075170;28;20533;-47
2022/12/02 11:01:12;;;;;;;17.67;11.53;;;4.30;99.90;;;;;;5086958;28;20555;-46
2022/12/02 11:03:40;;;;;;;20.27;12.57;;;4.50;99.90;;;;;;5091327;28;20444;-47
2022/12/02 11:06:12;;;;;;;17.83;12.00;;;4.60;99.90;;;;;;5092371;28;20541;-46
2022/12/02 11:08:42;;;;;;;15.60;10.63;;;4.60;99.90;;;;;;5091255;28;20523;-47
2022/12/02 11:11:13;;;;;;;17.87;10.53;;;4.50;99.90;;;;;;5091176;28;20470;-42
2022/12/02 11:13:54;;;;;;;16.40;10.60;;;4.50;99.90;;;;;;5090962;28;20532;-46
2022/12/02 11:16:46;;;;;;;14.50;10.27;;;4.40;99.90;;;;;;5091059;28;20435;-48
2022/12/02 11:19:49;;;;;;;15.47;11.27;;;4.30;99.90;;;;;;5087148;28;20976;-49
2022/12/02 11:22:47;;;;;;;14.10;9.97;;;4.20;99.90;;;;;;5090044;28;20455;-44
2022/12/02 11:25:54;;;;;;;14.40;10.03;;;4.20;99.90;;;;;;5090153;28;20450;-48
2022/12/02 11:28:58;;;;;;;12.83;10.30;;;4.20;99.90;;;;;;5090594;28;20850;-47
2022/12/02 11:31:26;;;;;;;14.90;10.63;;;4.30;99.90;;;;;;5071015;28;20470;-45
2022/12/02 11:34:03;;;;;;;17.60;10.57;;;4.30;99.90;;;;;;5071640;28;20539;-48
2022/12/02 11:36:32;;;;;;;15.47;10.53;;;4.30;99.90;;;;;;5070776;28;20436;-46
2022/12/02 11:39:07;;;;;;;14.03;11.77;;;4.20;99.90;;;;;;5086563;28;20465;-48
2022/12/02 11:42:11;;;;;;;19.03;12.60;;;4.10;99.90;;;;;;5089584;28;20555;-46
2022/12/02 11:44:40;;;;;;;18.20;11.23;;;4.20;99.90;;;;;;5091292;28;20440;-46
2022/12/02 11:47:21;;;;;;;17.20;12.60;;;4.20;99.90;;;;;;5090276;28;20477;-49
2022/12/02 11:49:48;;;;;;;20.53;12.40;;;4.20;99.90;;;;;;5090111;28;20527;-46
2022/12/02 11:52:21;;;;;;;15.17;11.80;;;4.30;99.90;;;;;;5090497;28;20555;-46
2022/12/02 11:54:56;;;;;;;17.80;11.73;;;4.30;99.90;;;;;;5091610;28;20444;-48
2022/12/02 11:57:27;;;;;;;16.83;11.00;;;4.40;99.90;;;;;;5090622;28;20531;-50
2022/12/02 11:59:56;;;;;;;18.17;11.43;;;4.30;99.90;;;;;;5090602;28;20448;-46
2022/12/02 12:02:25;;;;;;;16.47;12.60;;;4.30;99.90;;;;;;5090438;28;21000;-47
2022/12/02 12:05:03;;;;;;;19.27;12.30;;;4.40;99.90;;;;;;5090029;28;20642;-46
2022/12/02 12:07:44;;;;;;;15.13;10.33;;;4.40;99.90;;;;;;5091090;28;20874;-46
2022/12/02 12:10:28;;;;;;;18.83;11.23;;;4.50;99.90;;;;;;5091172;28;21024;-45
2022/12/02 12:13:21;;;;;;;21.47;12.20;;;4.50;99.90;;;;;;5091049;28;21063;-46
2022/12/02 12:15:54;;;;;;;17.80;11.57;;;4.50;99.90;;;;;;5072041;28;20972;-46
2022/12/02 12:18:51;;;;;;;15.43;12.20;;;4.40;99.90;;;;;;5090713;28;20694;-50
2022/12/02 12:21:46;;;;;;;15.10;10.50;;;4.50;99.90;;;;;;5086809;28;20541;-46
2022/12/02 12:24:36;;;;;;;19.93;11.93;;;4.40;99.90;;;;;;5086628;28;21041;-45
2022/12/02 12:27:32;;;;;;;17.47;11.73;;;4.50;99.90;;;;;;5085305;28;20968;-46
2022/12/02 12:29:59;;;;;;;19.47;10.73;;;4.50;99.90;;;;;;5089019;28;20459;-48
2022/12/02 12:32:27;;;;;;;14.50;11.53;;;4.50;99.90;;;;;;5087177;28;20469;-47
2022/12/02 12:34:55;;;;;;;16.50;12.90;;;4.50;99.90;;;;;;5072229;28;20879;-46
2022/12/02 12:37:22;;;;;;;17.00;12.17;;;4.50;99.90;;;;;;5090047;28;20848;-45
2022/12/02 12:39:49;;;;;;;14.43;10.10;;;4.50;99.90;;;;;;5090925;28;20440;-46
2022/12/02 12:42:15;;;;;;;15.63;11.60;;;4.50;99.90;;;;;;5089811;28;20561;-46
2022/12/02 12:44:42;;;;;;;17.17;11.43;;;4.50;99.90;;;;;;5089170;28;20957;-48
2022/12/02 12:47:09;;;;;;;14.27;11.37;;;4.50;99.90;;;;;;5088555;28;20565;-46
2022/12/02 12:49:37;;;;;;;15.00;11.77;;;4.60;99.90;;;;;;5089568;28;20448;-46
2022/12/02 12:52:04;;;;;;;15.50;11.83;;;4.80;99.90;;;;;;5090649;28;20832;-46